Time;durP1;ratioP1;P1;durP2;ratioP2;P2;SDS_P1;SDS_P2;PMS_P1;PMS_P2;Temp;Humidity;BMP_temperature;BMP_pressure;BME280_temperature;BME280_humidity;BME280_pressure;Samples;Min_cycle;Max_cycle;Signal;HPM_P1;HPM_P2
2022/04/26 03:40:07;;;;;;;66.40;46.10;;;;;;;10.27;67.53;98716.48;233304;1219;139873;-61
2022/04/26 03:45:11;;;;;;;28.90;20.60;;;;;;;10.33;67.27;98722.17;233139;1217;139323;-60
2022/04/26 03:50:14;;;;;;;33.20;22.00;;;;;;;10.36;67.10;98725.86;233494;1217;139596;-60
2022/04/26 03:55:17;;;;;;;32.40;22.50;;;;;;;10.38;67.38;98730.98;233264;1217;139168;-58
2022/04/26 04:00:20;;;;;;;31.90;22.90;;;;;;;10.40;67.03;98741.20;233409;1217;138817;-60
2022/04/26 04:05:23;;;;;;;30.00;21.80;;;;;;;10.39;67.21;98740.89;233311;1217;139246;-62
2022/04/26 04:10:26;;;;;;;33.30;22.40;;;;;;;10.35;66.90;98745.60;233286;1217;138728;-61
2022/04/26 04:15:29;;;;;;;78.80;55.50;;;;;;;10.31;67.17;98749.73;233251;1217;139245;-60
2022/04/26 04:20:34;;;;;;;28.20;20.70;;;;;;;10.34;67.49;98758.05;233450;1217;138496;-62
2022/04/26 04:25:37;;;;;;;25.20;20.00;;;;;;;10.40;66.92;98768.15;233464;1217;139639;-62
2022/04/26 04:30:41;;;;;;;28.90;20.70;;;;;;;10.42;66.97;98777.77;233291;1217;139458;-60
2022/04/26 04:35:44;;;;;;;29.70;20.30;;;;;;;10.44;67.08;98779.95;233275;1217;139007;-60
2022/04/26 04:40:47;;;;;;;27.20;19.80;;;;;;;10.45;66.87;98782.35;233325;1217;139071;-61
2022/04/26 04:45:51;;;;;;;28.20;20.60;;;;;;;10.41;66.77;98789.86;233358;1217;139222;-61
2022/04/26 04:50:54;;;;;;;30.10;20.90;;;;;;;10.37;66.64;98794.76;233235;1217;138659;-63
2022/04/26 04:55:57;;;;;;;30.80;21.20;;;;;;;10.34;66.91;98799.21;233370;1217;138982;-64
2022/04/26 05:01:00;;;;;;;26.70;19.20;;;;;;;10.28;66.71;98800.83;233286;1217;139703;-62
2022/04/26 05:06:03;;;;;;;29.60;20.30;;;;;;;10.28;66.93;98806.85;233387;1217;141440;-62
2022/04/26 05:11:06;;;;;;;26.80;19.40;;;;;;;10.34;67.05;98807.54;233315;1217;139446;-62
2022/04/26 05:16:10;;;;;;;29.50;21.50;;;;;;;10.39;67.41;98816.59;233105;1219;138976;-62
2022/04/26 05:21:13;;;;;;;33.40;21.70;;;;;;;10.42;67.01;98823.02;233314;1217;139071;-61
2022/04/26 05:26:18;;;;;;;28.90;19.90;;;;;;;10.45;67.16;98827.60;233364;1217;138929;-61
2022/04/26 05:31:21;;;;;;;28.60;21.40;;;;;;;10.41;66.96;98834.36;233258;1217;138734;-62
2022/04/26 05:36:24;;;;;;;32.80;21.40;;;;;;;10.39;67.07;98842.70;233370;1217;138942;-62
2022/04/26 05:41:27;;;;;;;32.50;21.40;;;;;;;10.38;66.84;98842.71;233405;1217;138733;-63
2022/04/26 05:46:32;;;;;;;29.70;19.60;;;;;;;10.43;67.01;98848.99;233302;1217;141009;-61
2022/04/26 05:51:35;;;;;;;36.00;21.10;;;;;;;10.51;66.90;98853.30;233183;1217;139446;-62
2022/04/26 05:56:38;;;;;;;29.20;20.50;;;;;;;10.54;66.37;98858.35;233294;1217;139386;-64
2022/04/26 06:01:41;;;;;;;29.20;21.40;;;;;;;10.57;66.67;98867.63;233448;1217;139387;-64
2022/04/26 06:06:45;;;;;;;30.40;20.70;;;;;;;10.57;66.52;98869.52;233292;1218;140079;-62
2022/04/26 06:11:48;;;;;;;28.60;20.00;;;;;;;10.56;66.41;98874.77;233233;1217;138816;-62
2022/04/26 06:16:51;;;;;;;30.30;20.70;;;;;;;10.56;66.38;98873.34;233258;1217;138695;-62
2022/04/26 06:21:54;;;;;;;31.50;21.50;;;;;;;10.57;66.19;98878.23;233351;1217;141631;-61
2022/04/26 06:26:57;;;;;;;31.50;21.70;;;;;;;10.54;66.14;98885.36;233347;1217;139199;-62
2022/04/26 06:32:01;;;;;;;31.80;20.90;;;;;;;10.58;66.11;98883.30;233432;1217;140276;-61
2022/04/26 06:37:04;;;;;;;33.40;22.50;;;;;;;10.65;66.07;98887.13;233306;1216;139157;-63
2022/04/26 06:42:07;;;;;;;28.60;20.50;;;;;;;10.65;65.78;98885.18;233445;1217;138935;-62
2022/04/26 06:47:12;;;;;;;30.50;20.30;;;;;;;10.63;65.86;98887.96;233401;1217;139657;-63
2022/04/26 06:52:15;;;;;;;28.70;20.40;;;;;;;10.60;66.06;98884.58;233394;1217;139962;-61
2022/04/26 06:57:18;;;;;;;31.20;20.50;;;;;;;10.58;65.84;98885.61;233398;1217;138792;-61
2022/04/26 07:02:22;;;;;;;35.80;22.00;;;;;;;10.59;65.85;98891.73;233382;1217;138694;-63
2022/04/26 07:07:25;;;;;;;31.20;20.90;;;;;;;10.70;65.89;98893.38;233279;1219;138731;-63
2022/04/26 07:12:28;;;;;;;31.90;19.70;;;;;;;10.77;65.83;98897.71;233312;1217;139024;-64
2022/04/26 07:17:31;;;;;;;26.70;18.70;;;;;;;10.77;65.77;98898.41;233207;1217;138847;-64
2022/04/26 07:22:36;;;;;;;27.30;18.70;;;;;;;10.83;65.57;98909.55;233301;1217;139965;-62
2022/04/26 07:27:40;;;;;;;24.80;17.40;;;;;;;10.92;65.58;98909.52;233282;1217;139305;-62
2022/04/26 07:38:06;;;;;;;29.00;19.60;;;;;;;11.03;65.07;98917.98;233650;1215;138741;-62
2022/04/26 07:43:09;;;;;;;26.70;19.30;;;;;;;11.07;65.20;98918.61;233188;1217;138803;-60
2022/04/26 07:48:16;;;;;;;31.10;19.80;;;;;;;11.14;65.33;98919.09;233282;1217;138769;-62
2022/04/26 07:53:19;;;;;;;33.30;20.80;;;;;;;11.21;65.31;98927.11;233403;1217;138943;-62
2022/04/26 07:58:22;;;;;;;36.80;21.70;;;;;;;11.24;64.68;98930.27;233373;1217;138791;-61
2022/04/26 08:03:25;;;;;;;32.20;23.10;;;;;;;11.28;64.63;98933.91;233310;1217;139537;-61
2022/04/26 08:08:28;;;;;;;34.40;22.10;;;;;;;11.38;64.89;98936.25;233400;1219;141527;-62
2022/04/26 08:13:32;;;;;;;31.60;22.40;;;;;;;11.52;64.82;98933.56;233287;1217;138950;-63
2022/04/26 08:18:36;;;;;;;30.50;21.00;;;;;;;11.67;64.57;98936.09;233315;1217;139347;-63
2022/04/26 08:29:03;;;;;;;32.60;22.00;;;;;;;11.98;63.83;98942.70;233122;1217;139310;-63
2022/04/26 08:34:06;;;;;;;33.80;24.10;;;;;;;12.11;64.07;98945.00;233331;1217;139215;-62
2022/04/26 08:39:09;;;;;;;37.90;23.40;;;;;;;12.25;63.66;98946.13;233334;1217;139148;-62
2022/04/26 08:44:13;;;;;;;41.30;23.70;;;;;;;12.35;63.72;98944.74;233385;1217;139214;-61
2022/04/26 08:54:38;;;;;;;27.80;19.80;;;;;;;12.60;63.29;98944.77;233193;1217;138734;-62
2022/04/26 08:59:50;;;;;;;135.50;89.90;;;;;;;12.63;62.73;98946.83;233379;1217;138925;-62
2022/04/26 09:05:00;;;;;;;37.90;25.80;;;;;;;12.71;62.26;98944.66;233061;1217;139829;-61
2022/04/26 09:10:05;;;;;;;29.80;20.40;;;;;;;12.78;62.51;98943.91;233300;1217;139441;-63
2022/04/26 09:15:16;;;;;;;29.90;20.40;;;;;;;12.84;61.85;98941.94;233300;1217;138951;-62
2022/04/26 09:20:34;;;;;;;26.60;19.40;;;;;;;12.95;61.85;98949.65;233418;1217;139055;-62
2022/04/26 09:25:37;;;;;;;28.10;17.60;;;;;;;12.97;61.40;98951.46;233226;1217;139022;-61
2022/04/26 09:30:40;;;;;;;26.20;18.50;;;;;;;12.91;60.89;98953.39;233180;1217;138814;-62
2022/04/26 09:35:45;;;;;;;22.70;16.20;;;;;;;12.83;60.80;98950.91;233245;1217;138840;-63
2022/04/26 09:40:49;;;;;;;23.50;15.40;;;;;;;12.78;60.31;98958.74;233370;1217;139700;-61
2022/04/26 09:45:56;;;;;;;22.70;14.90;;;;;;;12.76;60.37;98960.66;233461;1217;139049;-62
2022/04/26 09:50:59;;;;;;;21.00;14.20;;;;;;;12.78;60.51;98958.88;233971;1216;138935;-60
2022/04/26 09:56:04;;;;;;;132.70;88.80;;;;;;;12.76;59.99;98951.23;234010;1217;138828;-62
2022/04/26 10:01:29;;;;;;;31.50;18.10;;;;;;;12.77;60.14;98952.42;233903;1216;138314;-62
2022/04/26 10:06:37;;;;;;;20.00;13.80;;;;;;;12.84;59.79;98952.11;233902;1216;138603;-61
2022/04/26 10:11:40;;;;;;;22.40;14.50;;;;;;;12.81;59.40;98954.61;233911;1215;139563;-61
2022/04/26 10:16:45;;;;;;;20.30;13.50;;;;;;;12.76;59.57;98953.02;233870;1215;138606;-62
2022/04/26 10:21:49;;;;;;;21.50;14.00;;;;;;;12.68;59.31;98958.19;233867;1216;139136;-62
2022/04/26 10:26:52;;;;;;;27.50;15.70;;;;;;;12.63;59.26;98968.17;233754;1215;138433;-62
2022/04/26 10:31:55;;;;;;;20.30;14.10;;;;;;;12.57;59.19;98965.21;233781;1217;138669;-63
2022/04/26 10:37:01;;;;;;;18.70;13.20;;;;;;;12.49;59.43;98973.41;233425;1217;139025;-62
2022/04/26 10:42:16;;;;;;;20.80;15.10;;;;;;;12.43;59.45;98975.99;233320;1215;139218;-63
2022/04/26 10:47:22;;;;;;;26.00;15.40;;;;;;;12.41;59.88;98978.11;233058;1218;138678;-63
2022/04/26 10:52:33;;;;;;;19.90;13.70;;;;;;;12.36;59.93;98981.84;233133;1218;139557;-61
2022/04/26 10:57:39;;;;;;;18.60;13.60;;;;;;;12.31;59.71;98988.25;233198;1217;138976;-61
2022/04/26 11:02:46;;;;;;;20.00;12.50;;;;;;;12.26;60.25;98987.01;233206;1217;138787;-61
2022/04/26 11:07:50;;;;;;;14.40;10.80;;;;;;;12.21;60.59;98985.23;233353;1217;138748;-62
2022/04/26 11:12:56;;;;;;;17.00;11.90;;;;;;;12.15;61.04;98984.38;233188;1217;139285;-64
2022/04/26 11:17:59;;;;;;;16.70;12.30;;;;;;;12.13;60.99;98987.91;233351;1217;138898;-62
2022/04/26 11:27:59;;;;;;;17.30;12.80;;;;;;;12.12;61.16;98993.13;233327;1217;138905;-62
2022/04/26 11:28:27;;;;;;;22.00;12.20;;;;;;;12.12;61.13;98997.78;233168;1217;139387;-62
2022/04/26 11:33:32;;;;;;;21.70;11.50;;;;;;;12.16;61.16;99001.23;233248;1217;139415;-62
2022/04/26 11:38:35;;;;;;;18.20;11.90;;;;;;;12.21;61.31;99003.21;233391;1217;139851;-62
2022/04/26 11:43:38;;;;;;;21.30;12.50;;;;;;;12.27;61.04;99002.74;233328;1217;139411;-62
2022/04/26 11:48:47;;;;;;;16.60;13.20;;;;;;;12.35;61.15;99004.71;233220;1217;138481;-61
2022/04/26 11:53:51;;;;;;;20.80;14.00;;;;;;;12.40;60.98;99002.73;233193;1217;139118;-61
2022/04/26 11:58:57;;;;;;;24.40;15.60;;;;;;;12.48;60.89;99004.85;233227;1217;139841;-62
2022/04/26 12:04:00;;;;;;;20.40;16.60;;;;;;;12.59;61.23;99003.02;233244;1217;140142;-62
2022/04/26 12:09:05;;;;;;;26.00;19.00;;;;;;;12.65;60.75;99003.09;233296;1217;140268;-60
2022/04/26 12:14:14;;;;;;;27.10;18.40;;;;;;;12.67;60.56;99003.89;233346;1217;140947;-56
2022/04/26 12:19:17;;;;;;;24.30;16.80;;;;;;;12.68;60.91;99002.74;233383;1216;138831;-58
2022/04/26 12:24:25;;;;;;;49.60;34.50;;;;;;;12.67;60.57;99003.52;233426;1215;138653;-59
2022/04/26 12:29:31;;;;;;;23.60;16.90;;;;;;;13.31;63.08;98999.05;233648;1216;138443;-57
2022/04/26 12:34:36;;;;;;;26.30;16.80;;;;;;;13.55;60.46;99000.13;233305;1217;140871;-55
2022/04/26 12:39:42;;;;;;;22.90;17.30;;;;;;;13.39;59.72;98999.88;233412;1217;139065;-60
2022/04/26 12:44:54;;;;;;;26.80;17.10;;;;;;;13.24;59.48;98998.47;233311;1215;138626;-60
2022/04/26 12:55:34;;;;;;;19.20;14.50;;;;;;;13.12;59.50;99000.42;233215;1217;139074;-57
2022/04/26 13:00:41;;;;;;;20.20;14.10;;;;;;;13.06;59.39;99003.75;233275;1217;141347;-59
2022/04/26 13:05:50;;;;;;;16.70;13.20;;;;;;;12.99;59.06;99005.65;233210;1218;139716;-58
2022/04/26 13:10:54;;;;;;;22.50;15.00;;;;;;;12.89;59.00;99003.33;233267;1217;138577;-58
2022/04/26 13:15:58;;;;;;;21.90;15.10;;;;;;;12.81;59.05;99006.11;233060;1217;230153;-58
2022/04/26 13:21:01;;;;;;;19.90;13.80;;;;;;;12.71;59.19;99005.88;233631;1217;138401;-59
2022/04/26 13:26:06;;;;;;;20.80;13.90;;;;;;;12.63;59.21;99005.02;233999;1217;138961;-58
2022/04/26 13:31:10;;;;;;;22.70;13.90;;;;;;;12.59;59.33;99007.81;233824;1217;139093;-60
2022/04/26 13:36:13;;;;;;;18.30;13.10;;;;;;;12.52;59.14;99006.36;233781;1217;138827;-59
2022/04/26 13:41:16;;;;;;;18.10;13.30;;;;;;;12.48;58.96;99005.16;233904;1217;138278;-58
2022/04/26 13:46:19;;;;;;;15.20;10.20;;;;;;;12.48;59.22;99006.64;233907;1217;138834;-58
2022/04/26 13:51:29;;;;;;;9.90;7.50;;;;;;;12.51;59.47;99006.92;233820;1217;138542;-59
2022/04/26 13:56:32;;;;;;;10.80;8.60;;;;;;;12.49;58.64;99008.85;233853;1217;138990;-58
2022/04/26 14:01:43;;;;;;;11.40;7.20;;;;;;;12.49;58.64;99006.77;233745;1217;138672;-58
2022/04/26 14:06:49;;;;;;;12.30;8.00;;;;;;;12.50;58.62;99012.56;233731;1215;138696;-56
2022/04/26 14:11:55;;;;;;;11.30;8.10;;;;;;;12.51;58.27;99015.83;233700;1217;138747;-58
2022/04/26 14:22:21;;;;;;;13.90;8.30;;;;;;;12.57;58.64;99007.08;233783;1217;139019;-58
2022/04/26 14:27:26;;;;;;;12.30;8.50;;;;;;;12.60;58.04;99011.65;233878;1217;139095;-60
2022/04/26 14:32:29;;;;;;;19.40;9.60;;;;;;;12.61;58.12;99009.44;233820;1217;138420;-58
2022/04/26 14:37:33;;;;;;;13.80;9.00;;;;;;;12.59;57.89;99012.99;233691;1217;140449;-59
2022/04/26 14:42:37;;;;;;;14.90;9.60;;;;;;;12.59;58.04;99012.30;233823;1217;138912;-61
2022/04/26 14:47:40;;;;;;;14.10;10.00;;;;;;;12.53;57.56;99011.77;233847;1217;138405;-56
2022/04/26 14:52:44;;;;;;;14.30;9.70;;;;;;;12.52;57.52;99011.48;233684;1217;138668;-58
2022/04/26 14:57:47;;;;;;;13.60;9.90;;;;;;;12.49;57.40;99013.32;233750;1217;138933;-58
2022/04/26 15:02:50;;;;;;;11.00;8.30;;;;;;;12.51;57.90;99018.68;233864;1217;138952;-58
2022/04/26 15:18:39;;;;;;;48.00;31.30;;;;;;;12.58;57.83;99015.36;233783;1217;138961;-60
2022/04/26 15:23:42;;;;;;;15.60;10.20;;;;;;;12.61;57.84;99012.15;233945;1216;139069;-59
2022/04/26 15:28:45;;;;;;;12.10;7.80;;;;;;;12.61;57.67;99016.44;233544;1217;138203;-57
2022/04/26 15:33:50;;;;;;;9.50;6.80;;;;;;;12.59;57.74;99018.49;233184;1217;139385;-59
2022/04/26 15:38:58;;;;;;;10.20;6.80;;;;;;;12.56;57.67;99017.79;233035;1217;138816;-57
2022/04/26 15:44:03;;;;;;;12.90;6.80;;;;;;;12.56;57.83;99013.02;233290;1217;138608;-58
2022/04/26 15:49:19;;;;;;;8.90;6.30;;;;;;;12.55;57.80;99018.23;233196;1217;138503;-57
2022/04/26 15:54:27;;;;;;;12.70;7.30;;;;;;;12.58;58.01;99018.94;233060;1219;138191;-57
2022/04/26 15:59:30;;;;;;;13.20;8.60;;;;;;;12.60;58.51;99023.27;233247;1217;138801;-58
2022/04/26 16:04:35;;;;;;;14.00;9.50;;;;;;;12.56;58.17;99022.08;233170;1218;139789;-55
2022/04/26 16:20:28;;;;;;;14.20;10.50;;;;;;;12.46;58.37;99038.95;233199;1217;138861;-58
2022/04/26 16:25:33;;;;;;;16.80;11.20;;;;;;;12.43;58.49;99041.69;233257;1217;138994;-60
2022/04/26 16:30:38;;;;;;;16.10;11.00;;;;;;;12.40;58.49;99040.79;233123;1217;138785;-58
2022/04/26 16:35:41;;;;;;;18.20;10.80;;;;;;;12.36;58.57;99040.38;232922;1217;141338;-56
2022/04/26 18:04:44;;;;;;;22.40;11.70;;;;;;;22.26;54.93;99078.35;230464;1233;634983;-38
2022/04/26 18:15:14;;;;;;;20.60;12.00;;;;;;;22.83;53.70;99092.60;230033;1233;636049;-45
2022/04/26 18:20:19;;;;;;;21.10;12.60;;;;;;;22.90;52.85;99095.48;232666;1222;138485;-36
2022/04/26 18:26:10;;;;;;;19.20;11.40;;;;;;;22.91;52.21;99103.39;232404;1224;140587;-34
2022/04/26 18:30:45;;;;;;;17.50;11.10;;;;;;;22.93;51.81;99109.51;232234;1223;139441;-44
2022/04/26 18:46:55;;;;;;;16.90;12.60;;;;;;;19.68;50.79;99126.98;230283;1233;636531;-59
2022/04/26 18:51:59;;;;;;;143.00;95.60;;;;;;;18.69;50.58;99135.59;233301;1217;139320;-58
2022/04/26 18:57:02;;;;;;;23.80;15.30;;;;;;;17.38;48.19;99141.60;233270;1219;140127;-57
2022/04/26 19:02:06;;;;;;;17.80;13.00;;;;;;;16.31;48.29;99149.45;233333;1217;138459;-58
2022/04/26 19:07:09;;;;;;;18.40;12.80;;;;;;;15.44;48.87;99148.87;233065;1219;138777;-58
2022/04/26 19:12:15;;;;;;;33.90;13.00;;;;;;;14.82;49.53;99155.67;233238;1219;139778;-58
2022/04/26 19:19:20;;;;;;;19.00;12.70;;;;;;;14.02;50.66;99160.84;230709;1233;636503;-60
2022/04/26 19:24:25;;;;;;;17.00;12.50;;;;;;;13.64;51.46;99169.71;233326;1222;139144;-57
2022/04/26 19:29:28;;;;;;;22.00;13.40;;;;;;;13.44;51.92;99169.88;233491;1218;138004;-58
2022/04/26 19:34:31;;;;;;;20.10;13.60;;;;;;;13.27;52.10;99172.91;233212;1220;139104;-57
2022/04/26 19:39:35;;;;;;;28.60;13.10;;;;;;;13.15;52.41;99173.55;232996;1220;138477;-60
2022/04/26 19:44:38;;;;;;;246.00;165.40;;;;;;;13.07;53.14;99172.70;233044;1221;139452;-61
2022/04/26 19:49:41;;;;;;;27.00;16.30;;;;;;;13.07;53.43;99177.19;233212;1220;139171;-60
2022/04/26 19:54:44;;;;;;;21.40;14.20;;;;;;;13.08;53.51;99176.39;233260;1220;138520;-58
2022/04/26 19:59:47;;;;;;;23.10;14.40;;;;;;;12.90;53.36;99177.23;233061;1220;139270;-59
2022/04/26 20:04:50;;;;;;;25.20;15.80;;;;;;;12.71;53.42;99178.02;233079;1219;139349;-59
2022/04/26 20:09:55;;;;;;;20.70;15.10;;;;;;;12.52;53.72;99177.14;233411;1219;139184;-58
2022/04/26 20:15:01;;;;;;;;;;;;;;;12.40;54.04;99171.95;233266;1220;139104;-63
2022/04/26 20:20:04;;;;;;;25.10;14.90;;;;;;;12.23;54.44;99175.21;233232;1219;128386;-60
2022/04/26 20:25:08;;;;;;;24.00;14.40;;;;;;;12.10;54.47;99176.42;233266;1219;138908;-60
2022/04/26 20:30:11;;;;;;;24.00;14.20;;;;;;;11.96;54.63;99180.75;232926;1219;138423;-58
2022/04/26 20:35:14;;;;;;;23.10;15.40;;;;;;;11.87;54.90;99180.83;232981;1220;139253;-58
2022/04/26 20:40:17;;;;;;;24.10;14.40;;;;;;;11.83;55.27;99184.98;233341;1219;139184;-59
2022/04/26 20:45:20;;;;;;;31.20;15.80;;;;;;;11.83;55.27;99186.89;233286;1220;139452;-58
2022/04/26 20:50:23;;;;;;;26.00;15.30;;;;;;;11.83;55.43;99195.77;232994;1220;139411;-59
2022/04/26 20:55:26;;;;;;;28.60;15.40;;;;;;;11.79;55.48;99200.50;233057;1220;139016;-60
2022/04/26 21:00:29;;;;;;;26.90;16.10;;;;;;;11.75;55.41;99201.10;232783;1219;140211;-58
2022/04/26 21:05:33;;;;;;;21.40;14.90;;;;;;;11.66;55.72;99206.46;233125;1220;139630;-59
2022/04/26 21:10:36;;;;;;;28.30;16.30;;;;;;;11.60;55.92;99207.36;233212;1220;141111;-58
2022/04/26 21:15:39;;;;;;;31.80;16.50;;;;;;;11.58;56.16;99206.80;233238;1220;139447;-58
2022/04/26 21:20:42;;;;;;;43.90;27.90;;;;;;;11.52;56.12;99208.09;232956;1220;139411;-59
2022/04/26 21:25:46;;;;;;;30.00;17.20;;;;;;;11.49;56.25;99208.28;233122;1219;138546;-58
2022/04/26 21:30:49;;;;;;;29.90;19.10;;;;;;;11.35;56.30;99213.95;233058;1219;139730;-60
2022/04/26 21:35:52;;;;;;;34.10;20.80;;;;;;;11.21;56.49;99217.10;233041;1220;139409;-60
2022/04/26 21:40:55;;;;;;;34.00;21.10;;;;;;;11.09;56.56;99225.31;233069;1219;139335;-60
2022/04/26 21:46:03;;;;;;;30.50;20.60;;;;;;;11.01;56.73;99226.30;233125;1219;139091;-59
2022/04/26 21:56:30;;;;;;;34.70;20.20;;;;;;;10.85;56.84;99229.77;232835;1219;140196;-59
2022/04/26 22:01:33;;;;;;;30.60;20.60;;;;;;;10.86;57.15;99233.79;232871;1219;140428;-63
2022/04/26 22:06:37;;;;;;;31.00;21.00;;;;;;;10.81;57.11;99236.23;232995;1220;138737;-62
2022/04/26 22:11:40;;;;;;;31.70;20.70;;;;;;;10.73;56.77;99241.15;232761;1220;138585;-60
2022/04/26 22:16:43;;;;;;;28.80;20.30;;;;;;;10.63;56.93;99241.52;233075;1219;138651;-60
2022/04/26 22:21:46;;;;;;;31.80;21.50;;;;;;;10.59;57.32;99238.25;233085;1220;138739;-61
2022/04/26 22:26:50;;;;;;;35.60;21.90;;;;;;;10.52;57.55;99242.55;232817;1219;139174;-64
2022/04/26 22:31:53;;;;;;;37.20;22.90;;;;;;;10.41;57.04;99251.55;233110;1219;138654;-58
2022/04/26 22:36:57;;;;;;;106.40;64.90;;;;;;;10.31;57.26;99256.59;233024;1219;138649;-59
2022/04/26 22:42:01;;;;;;;35.40;24.70;;;;;;;10.30;57.59;99255.21;232951;1220;138974;-62
2022/04/26 22:47:04;;;;;;;35.70;23.50;;;;;;;10.23;57.41;99253.98;233178;1219;140518;-60
2022/04/26 22:52:07;;;;;;;34.80;24.00;;;;;;;10.09;57.36;99255.46;233247;1218;138734;-57
2022/04/26 22:57:11;;;;;;;38.70;23.30;;;;;;;10.05;57.49;99257.98;233175;1220;230706;-59
2022/04/26 23:02:14;;;;;;;37.10;23.50;;;;;;;10.08;57.75;99252.88;233210;1220;140239;-59
2022/04/26 23:07:17;;;;;;;36.10;24.10;;;;;;;10.15;57.77;99253.54;233206;1219;139018;-60
2022/04/26 23:12:20;;;;;;;35.90;23.70;;;;;;;10.18;57.82;99254.80;233139;1220;138944;-60
2022/04/26 23:17:24;;;;;;;36.80;23.80;;;;;;;10.10;57.75;99255.92;233244;1219;138394;-58
2022/04/26 23:22:27;;;;;;;34.20;23.30;;;;;;;10.05;57.56;99257.48;232327;1219;139594;-57
2022/04/26 23:27:30;;;;;;;35.90;23.20;;;;;;;9.98;57.71;99259.48;233325;1219;140549;-56
2022/04/26 23:32:33;;;;;;;33.30;23.40;;;;;;;9.87;57.98;99255.98;233298;1219;138054;-58
2022/04/26 23:37:36;;;;;;;36.50;22.90;;;;;;;9.79;57.73;99253.77;233102;1219;138630;-61
2022/04/26 23:42:39;;;;;;;35.90;23.90;;;;;;;9.76;57.99;99254.48;233173;1219;140918;-59
2022/04/26 23:47:42;;;;;;;37.60;23.80;;;;;;;9.73;58.06;99253.40;232835;1220;138735;-56
2022/04/26 23:52:54;;;;;;;38.30;23.90;;;;;;;9.70;58.17;99250.36;233380;1219;138250;-60
2022/04/26 23:57:57;;;;;;;37.00;23.10;;;;;;;9.64;57.96;99252.66;233128;1218;139683;-58
